Time;durP1;ratioP1;P1;durP2;ratioP2;P2;SDS_P1;SDS_P2;PMS_P1;PMS_P2;Temp;Humidity;BMP_temperature;BMP_pressure;BME280_temperature;BME280_humidity;BME280_pressure;Samples;Min_cycle;Max_cycle;Signal;HPM_P1;HPM_P2
2023/06/24 00:02:01;;;;;;;5.20;4.70;;;18.00;99.90;;;;;;4906039;29;20234;-64
2023/06/24 00:04:26;;;;;;;6.20;4.50;;;17.90;99.90;;;;;;4897384;29;20449;-64
2023/06/24 00:06:52;;;;;;;4.90;4.50;;;18.00;99.90;;;;;;4905371;29;20469;-64
2023/06/24 00:09:18;;;;;;;5.77;5.17;;;18.00;99.90;;;;;;4895131;29;20183;-64
2023/06/24 00:11:43;;;;;;;5.50;5.00;;;17.70;99.70;;;;;;4900366;29;20227;-64
2023/06/24 00:14:10;;;;;;;5.50;5.00;;;17.90;99.90;;;;;;4899017;29;20652;-64
2023/06/24 00:16:36;;;;;;;5.30;4.80;;;17.80;99.90;;;;;;4904547;29;20325;-64
2023/06/24 00:19:02;;;;;;;4.70;4.30;;;17.70;99.90;;;;;;4893564;29;20183;-62
2023/06/24 00:21:29;;;;;;;4.57;4.17;;;17.80;99.90;;;;;;4907116;29;20509;-62
2023/06/24 00:24:01;;;;;;;4.70;4.30;;;17.80;99.90;;;;;;4904499;29;20178;-62
2023/06/24 00:26:27;;;;;;;8.00;4.80;;;17.80;99.90;;;;;;4901728;29;20225;-64
2023/06/24 00:28:52;;;;;;;5.00;4.60;;;17.80;99.90;;;;;;4904307;29;20206;-64
2023/06/24 00:31:19;;;;;;;5.20;4.80;;;17.80;99.90;;;;;;4911753;29;20245;-64
2023/06/24 00:33:44;;;;;;;5.00;4.60;;;17.70;99.90;;;;;;4910354;29;20182;-64
2023/06/24 00:36:11;;;;;;;5.20;4.70;;;17.50;99.90;;;;;;4909691;29;20529;-64
2023/06/24 00:38:37;;;;;;;5.43;4.93;;;17.70;99.90;;;;;;4909441;29;20719;-64
2023/06/24 00:41:03;;;;;;;5.00;4.60;;;17.60;99.90;;;;;;4907669;29;20223;-65
2023/06/24 00:43:29;;;;;;;5.13;4.68;;;17.80;99.90;;;;;;4907377;29;20493;-65
2023/06/24 00:45:58;;;;;;;4.63;4.23;;;18.00;99.90;;;;;;4910981;29;20547;-65
2023/06/24 00:48:24;;;;;;;5.20;4.70;;;17.60;99.90;;;;;;4911059;29;20524;-65
2023/06/24 00:50:50;;;;;;;4.77;4.37;;;17.60;99.90;;;;;;4905704;29;20285;-65
2023/06/24 00:53:17;;;;;;;7.00;4.65;;;17.50;99.90;;;;;;4903548;29;20770;-65
2023/06/24 00:55:45;;;;;;;5.80;4.40;;;17.50;99.90;;;;;;4911956;29;20274;-65
2023/06/24 00:58:15;;;;;;;5.25;4.70;;;17.50;99.90;;;;;;4902903;29;20242;-65
2023/06/24 01:00:42;;;;;;;5.47;4.97;;;17.40;99.90;;;;;;4912561;29;20229;-65
2023/06/24 01:03:13;;;;;;;5.70;5.13;;;17.50;99.90;;;;;;4908034;29;20209;-65
2023/06/24 01:05:44;;;;;;;4.80;4.40;;;17.60;99.90;;;;;;4904296;29;20226;-65
2023/06/24 01:08:15;;;;;;;5.70;5.20;;;17.40;99.90;;;;;;4907873;29;20628;-65
2023/06/24 01:10:41;;;;;;;4.82;4.43;;;;;;;;;;4907036;29;20216;-65
2023/06/24 01:13:06;;;;;;;5.50;5.00;;;17.10;99.90;;;;;;4905417;29;20229;-65
2023/06/24 01:15:33;;;;;;;5.67;5.17;;;17.20;99.90;;;;;;4911775;29;20222;-65
2023/06/24 01:18:34;;;;;;;5.90;5.13;;;17.20;99.90;;;;;;4909107;29;20188;-65
2023/06/24 01:21:14;;;;;;;5.60;5.00;;;17.20;99.90;;;;;;4910422;29;20219;-65
2023/06/24 01:24:08;;;;;;;5.30;4.80;;;17.20;99.90;;;;;;4901157;29;20258;-64
2023/06/24 01:27:01;;;;;;;6.50;5.85;;;17.00;99.90;;;;;;4907940;29;20193;-65
2023/06/24 01:29:30;;;;;;;5.50;5.00;;;17.00;99.90;;;;;;4907703;29;20601;-65
2023/06/24 01:31:59;;;;;;;5.10;4.60;;;17.10;99.90;;;;;;4910933;29;20309;-65
2023/06/24 01:34:37;;;;;;;5.45;4.95;;;17.40;99.90;;;;;;4903100;29;20210;-65
2023/06/24 01:37:50;;;;;;;5.20;4.70;;;17.10;99.90;;;;;;4899573;29;20186;-65
2023/06/24 01:40:41;;;;;;;6.88;5.25;;;17.10;99.90;;;;;;4900071;29;20221;-65
2023/06/24 01:43:09;;;;;;;7.15;5.53;;;17.00;99.90;;;;;;4901907;29;20194;-65
2023/06/24 01:45:44;;;;;;;5.13;4.63;;;17.00;99.90;;;;;;4910083;29;20190;-64
2023/06/24 01:48:22;;;;;;;5.10;4.70;;;16.90;99.90;;;;;;4905118;29;20707;-64
2023/06/24 01:51:12;;;;;;;6.53;5.93;;;16.80;99.90;;;;;;4909434;29;20694;-63
2023/06/24 01:53:42;;;;;;;5.70;5.20;;;16.80;99.90;;;;;;4898785;29;20211;-63
2023/06/24 01:56:12;;;;;;;6.10;5.25;;;16.90;99.90;;;;;;4911630;29;20194;-63
2023/06/24 01:58:40;;;;;;;5.45;4.95;;;16.70;99.90;;;;;;4905547;29;20586;-63
2023/06/24 02:01:07;;;;;;;5.53;5.05;;;16.80;99.90;;;;;;4906848;29;20232;-63
2023/06/24 02:03:34;;;;;;;6.00;5.53;;;16.60;99.90;;;;;;4902983;29;20273;-64
2023/06/24 02:06:01;;;;;;;6.07;5.50;;;16.60;99.90;;;;;;4907227;29;20187;-64
2023/06/24 02:08:32;;;;;;;5.80;5.20;;;16.60;99.90;;;;;;4910160;29;20244;-64
2023/06/24 02:10:59;;;;;;;5.95;5.43;;;16.50;99.90;;;;;;4906225;29;20218;-63
2023/06/24 02:13:25;;;;;;;6.15;5.53;;;16.40;99.90;;;;;;4910550;29;20194;-64
2023/06/24 02:15:52;;;;;;;6.28;5.68;;;16.50;99.90;;;;;;4907152;29;20203;-64
2023/06/24 02:18:19;;;;;;;6.75;5.82;;;16.40;99.90;;;;;;4922226;29;20190;-66
2023/06/24 02:20:47;;;;;;;5.05;4.63;;;16.40;99.90;;;;;;4907681;29;20591;-66
2023/06/24 02:23:13;;;;;;;6.55;5.95;;;16.40;99.90;;;;;;4908424;29;20241;-64
2023/06/24 02:25:40;;;;;;;5.43;4.82;;;16.30;99.90;;;;;;4911964;29;20213;-64
2023/06/24 02:28:07;;;;;;;6.38;5.78;;;16.30;99.90;;;;;;4900275;29;20561;-66
2023/06/24 02:30:35;;;;;;;5.78;4.80;;;16.30;99.90;;;;;;4909942;29;20240;-64
2023/06/24 02:33:01;;;;;;;6.63;5.70;;;16.40;99.90;;;;;;4906256;29;20206;-64
2023/06/24 02:35:27;;;;;;;6.27;5.63;;;16.20;99.90;;;;;;4912235;29;20201;-64
2023/06/24 02:37:52;;;;;;;5.80;5.30;;;16.20;99.90;;;;;;4907891;29;20194;-64
2023/06/24 02:40:18;;;;;;;7.00;6.30;;;16.50;99.90;;;;;;4907605;29;20905;-65
2023/06/24 02:42:44;;;;;;;6.70;6.10;;;16.40;99.90;;;;;;4902824;29;20215;-64
2023/06/24 02:45:10;;;;;;;6.90;6.30;;;16.30;99.90;;;;;;4908445;29;20217;-64
2023/06/24 02:47:36;;;;;;;7.27;6.60;;;16.30;99.90;;;;;;4904103;29;20183;-65
2023/06/24 02:50:05;;;;;;;6.15;5.55;;;16.30;99.90;;;;;;4907922;29;20540;-67
2023/06/24 02:52:30;;;;;;;6.68;6.07;;;16.30;99.90;;;;;;4910811;29;20214;-64
2023/06/24 02:54:59;;;;;;;6.37;5.77;;;16.10;99.90;;;;;;4911860;29;20310;-66
2023/06/24 02:57:26;;;;;;;6.10;5.53;;;16.30;99.90;;;;;;4907418;29;20194;-66
2023/06/24 02:59:51;;;;;;;6.50;5.90;;;16.40;99.90;;;;;;4907769;29;20565;-65
2023/06/24 03:02:17;;;;;;;6.23;5.33;;;16.50;99.90;;;;;;4904722;29;20214;-64
2023/06/24 03:04:43;;;;;;;6.57;5.93;;;16.20;99.90;;;;;;4909422;29;20443;-65
2023/06/24 03:07:10;;;;;;;7.30;6.60;;;16.10;99.90;;;;;;4909762;29;20277;-65
2023/06/24 03:09:36;;;;;;;5.95;5.38;;;16.10;99.90;;;;;;4913628;29;20205;-64
2023/06/24 03:12:02;;;;;;;6.03;5.53;;;16.10;99.90;;;;;;4904561;29;20210;-65
2023/06/24 03:14:27;;;;;;;6.13;5.60;;;15.90;99.90;;;;;;4909911;29;20187;-64
2023/06/24 03:16:53;;;;;;;6.50;5.90;;;15.80;99.90;;;;;;4907854;29;20486;-65
2023/06/24 03:19:19;;;;;;;6.22;5.70;;;15.90;99.90;;;;;;4916537;29;20210;-65
2023/06/24 03:21:45;;;;;;;6.38;5.78;;;15.90;99.90;;;;;;4910295;29;20687;-65
2023/06/24 03:24:11;;;;;;;7.07;6.23;;;15.90;99.90;;;;;;4909626;29;20199;-64
2023/06/24 03:26:40;;;;;;;8.07;6.57;;;15.90;99.90;;;;;;4904087;29;20285;-64
2023/06/24 03:29:07;;;;;;;7.15;6.47;;;15.80;99.90;;;;;;4906977;29;20621;-66
2023/06/24 03:31:33;;;;;;;6.20;5.60;;;15.80;99.90;;;;;;4910681;29;20209;-64
2023/06/24 03:33:58;;;;;;;6.20;5.70;;;16.00;99.90;;;;;;4905124;29;20202;-66
2023/06/24 03:36:24;;;;;;;6.50;5.90;;;15.80;99.90;;;;;;4901464;29;20202;-67
2023/06/24 03:38:50;;;;;;;6.83;6.23;;;15.90;99.90;;;;;;4903693;29;20194;-67
2023/06/24 03:41:16;;;;;;;6.93;5.35;;;15.80;99.90;;;;;;4907902;29;20240;-67
2023/06/24 03:43:41;;;;;;;6.83;6.20;;;15.70;99.90;;;;;;4908387;29;20196;-66
2023/06/24 03:46:07;;;;;;;6.13;5.63;;;15.90;99.90;;;;;;4906079;29;20179;-67
2023/06/24 03:48:33;;;;;;;6.23;5.73;;;16.00;99.90;;;;;;4905753;29;20532;-67
2023/06/24 03:50:59;;;;;;;6.83;6.20;;;16.00;99.90;;;;;;4906651;29;20187;-67
2023/06/24 03:53:24;;;;;;;7.03;6.43;;;16.00;99.90;;;;;;4904183;29;20455;-66
2023/06/24 03:55:50;;;;;;;6.90;6.27;;;16.10;99.90;;;;;;4906661;29;20190;-66
2023/06/24 03:58:16;;;;;;;5.80;5.40;;;16.00;99.90;;;;;;4903807;29;20206;-64
2023/06/24 04:00:43;;;;;;;7.88;6.15;;;16.10;99.90;;;;;;4906775;29;20266;-63
2023/06/24 04:03:09;;;;;;;6.43;5.90;;;16.00;99.90;;;;;;4905036;29;20744;-64
2023/06/24 04:05:35;;;;;;;6.00;5.40;;;16.40;99.90;;;;;;4909871;29;20190;-64
2023/06/24 04:08:05;;;;;;;6.20;5.60;;;16.20;99.90;;;;;;4907314;29;20191;-63
2023/06/24 04:10:31;;;;;;;5.35;4.95;;;16.20;99.90;;;;;;4907506;29;20625;-63
2023/06/24 04:12:56;;;;;;;5.90;5.40;;;16.20;99.90;;;;;;4906009;29;20762;-66
2023/06/24 04:15:22;;;;;;;5.63;5.23;;;16.40;99.90;;;;;;4914068;29;20190;-64
2023/06/24 04:17:47;;;;;;;5.50;5.00;;;16.60;99.90;;;;;;4910844;29;20186;-64
2023/06/24 04:20:13;;;;;;;5.80;5.30;;;16.50;99.90;;;;;;4910513;29;21584;-64
2023/06/24 04:22:41;;;;;;;5.93;5.33;;;16.60;99.90;;;;;;4912205;29;20215;-64
2023/06/24 04:25:07;;;;;;;6.35;5.75;;;16.50;99.90;;;;;;4910864;29;20759;-64
2023/06/24 04:27:33;;;;;;;6.32;5.72;;;16.40;99.90;;;;;;4907312;29;20269;-64
2023/06/24 04:30:00;;;;;;;5.97;5.47;;;16.70;99.90;;;;;;4913541;29;20305;-64
2023/06/24 04:32:25;;;;;;;7.93;6.10;;;16.90;99.90;;;;;;4911685;29;20525;-64
2023/06/24 04:34:51;;;;;;;6.00;5.40;;;16.90;99.90;;;;;;4914444;29;20190;-64
2023/06/24 04:37:16;;;;;;;5.50;5.10;;;16.80;99.90;;;;;;4909576;29;20276;-64
2023/06/24 04:39:43;;;;;;;5.93;5.33;;;16.90;99.90;;;;;;4913368;29;20206;-64
2023/06/24 04:42:09;;;;;;;5.50;5.10;;;17.20;99.90;;;;;;4906754;29;20253;-64
2023/06/24 04:44:35;;;;;;;6.20;5.70;;;17.10;99.90;;;;;;4913856;29;20277;-64
2023/06/24 04:47:00;;;;;;;5.80;5.30;;;17.10;99.90;;;;;;4914185;29;20529;-65
2023/06/24 04:49:26;;;;;;;6.70;6.00;;;17.30;99.90;;;;;;4905852;29;20240;-64
2023/06/24 04:51:51;;;;;;;5.73;5.20;;;17.60;99.90;;;;;;4914597;29;20236;-64
2023/06/24 04:54:17;;;;;;;6.33;5.73;;;17.50;99.90;;;;;;4912092;29;20198;-64
2023/06/24 04:56:44;;;;;;;5.57;5.07;;;17.60;99.90;;;;;;4904134;29;20187;-64
2023/06/24 04:59:10;;;;;;;6.20;5.70;;;17.80;99.90;;;;;;4912048;29;20182;-65
2023/06/24 05:01:36;;;;;;;6.83;6.20;;;18.00;99.90;;;;;;4913329;29;20218;-64
2023/06/24 05:04:01;;;;;;;7.37;6.67;;;18.00;99.90;;;;;;4909369;29;20232;-65
2023/06/24 05:06:27;;;;;;;6.60;6.00;;;18.00;99.90;;;;;;4904973;29;20187;-65
2023/06/24 05:08:52;;;;;;;6.40;5.90;;;18.10;99.90;;;;;;4908484;29;20596;-65
2023/06/24 05:11:18;;;;;;;6.67;5.97;;;18.20;99.90;;;;;;4908109;29;20214;-65
2023/06/24 05:13:44;;;;;;;6.03;5.47;;;18.20;99.90;;;;;;4907861;29;20686;-65
2023/06/24 05:16:09;;;;;;;6.40;5.80;;;18.30;99.90;;;;;;4911740;29;20198;-65
2023/06/24 05:18:35;;;;;;;6.90;5.37;;;18.30;99.90;;;;;;4906573;29;20198;-75
2023/06/24 05:21:04;;;;;;;5.65;5.15;;;18.50;99.90;;;;;;4910670;29;20226;-75
2023/06/24 05:23:30;;;;;;;6.22;5.72;;;18.20;99.90;;;;;;4913414;29;20529;-74
2023/06/24 05:25:56;;;;;;;6.23;5.70;;;18.20;99.90;;;;;;4915290;29;20279;-75
2023/06/24 05:28:23;;;;;;;5.43;4.87;;;18.70;99.90;;;;;;4915476;29;20458;-75
2023/06/24 05:30:49;;;;;;;6.20;5.60;;;18.50;99.90;;;;;;4908505;29;20447;-76
2023/06/24 05:33:15;;;;;;;6.10;5.50;;;18.90;99.90;;;;;;4910036;29;20194;-76
2023/06/24 05:35:43;;;;;;;6.20;5.70;;;19.40;99.90;;;;;;4911822;29;20513;-76
2023/06/24 05:38:08;;;;;;;7.43;5.80;;;18.70;99.90;;;;;;4911931;29;20182;-77
2023/06/24 05:40:34;;;;;;;6.07;5.47;;;19.30;99.90;;;;;;4925688;29;20243;-77
2023/06/24 05:43:00;;;;;;;6.63;5.60;;;19.40;99.90;;;;;;4905303;29;20237;-77
2023/06/24 05:45:26;;;;;;;6.70;5.95;;;19.50;99.90;;;;;;4907596;29;20182;-77
2023/06/24 05:47:52;;;;;;;6.07;5.50;;;19.70;99.80;;;;;;4908667;29;20183;-78
2023/06/24 05:50:17;;;;;;;5.70;5.20;;;19.80;99.40;;;;;;4912418;29;20197;-78
2023/06/24 05:52:43;;;;;;;6.07;5.57;;;19.80;99.00;;;;;;4909732;29;20218;-77
2023/06/24 05:55:09;;;;;;;5.50;5.00;;;19.90;98.70;;;;;;4912606;29;20755;-77
2023/06/24 05:57:34;;;;;;;5.60;5.10;;;20.00;98.50;;;;;;4907748;29;20242;-77
2023/06/24 06:00:00;;;;;;;5.60;5.10;;;20.10;98.10;;;;;;4914915;29;20260;-77
2023/06/24 06:02:25;;;;;;;5.50;5.10;;;20.20;98.20;;;;;;4913339;29;20734;-78
2023/06/24 06:04:51;;;;;;;5.17;4.77;;;20.30;97.90;;;;;;4912009;29;20218;-76
2023/06/24 06:07:16;;;;;;;6.17;5.67;;;20.30;98.10;;;;;;4911878;29;20182;-77
2023/06/24 06:09:42;;;;;;;5.90;5.40;;;20.40;97.60;;;;;;4913909;29;20644;-77
2023/06/24 06:12:08;;;;;;;5.90;5.40;;;20.50;97.40;;;;;;4910603;29;20699;-80
2023/06/24 06:14:34;;;;;;;6.38;5.78;;;20.60;96.90;;;;;;4915412;29;20188;-78
2023/06/24 06:17:00;;;;;;;5.43;4.93;;;20.70;96.60;;;;;;4909636;29;20187;-76
2023/06/24 06:19:25;;;;;;;5.40;5.00;;;20.90;96.30;;;;;;4905824;29;20199;-77
2023/06/24 06:21:51;;;;;;;5.57;5.10;;;21.00;96.20;;;;;;4905926;29;20721;-77
2023/06/24 06:24:17;;;;;;;5.85;5.03;;;21.10;95.70;;;;;;4909174;29;20190;-80
2023/06/24 06:26:44;;;;;;;4.63;4.23;;;21.20;95.30;;;;;;4882843;29;20195;-73
2023/06/24 06:29:11;;;;;;;5.40;4.90;;;21.40;94.90;;;;;;4902370;29;20562;-73
2023/06/24 06:31:36;;;;;;;4.90;4.50;;;21.60;94.60;;;;;;4900922;29;20210;-74
2023/06/24 06:34:02;;;;;;;4.83;4.43;;;21.70;94.10;;;;;;4902585;29;20197;-72
2023/06/24 06:36:28;;;;;;;5.53;5.03;;;21.70;93.80;;;;;;4903779;29;20682;-78
2023/06/24 06:38:54;;;;;;;4.33;4.00;;;21.80;93.80;;;;;;4903326;29;20437;-74
2023/06/24 06:41:24;;;;;;;4.10;3.80;;;21.80;92.30;;;;;;4902301;29;20224;-74
2023/06/24 06:43:53;;;;;;;5.97;3.85;;;22.00;92.50;;;;;;4905724;29;20712;-76
2023/06/24 06:46:19;;;;;;;4.95;4.55;;;22.10;91.40;;;;;;4922221;29;20254;-76
2023/06/24 06:48:45;;;;;;;5.07;4.68;;;22.00;91.60;;;;;;4912691;29;20191;-70
2023/06/24 06:51:12;;;;;;;4.70;4.30;;;21.90;91.50;;;;;;4899582;29;20220;-71
2023/06/24 06:53:37;;;;;;;4.90;4.50;;;22.20;91.70;;;;;;4907409;29;20189;-72
2023/06/24 06:56:03;;;;;;;4.13;3.83;;;22.30;91.40;;;;;;4905673;29;21066;-72
2023/06/24 06:58:29;;;;;;;4.07;3.77;;;22.40;91.10;;;;;;4918690;29;20190;-72
2023/06/24 07:00:54;;;;;;;4.00;3.60;;;23.10;87.40;;;;;;4900764;29;20219;-72
2023/06/24 07:03:20;;;;;;;4.43;4.13;;;23.10;87.80;;;;;;4901686;29;20544;-72
2023/06/24 07:05:46;;;;;;;3.97;3.67;;;23.90;86.80;;;;;;4903771;29;20206;-72
2023/06/24 07:08:12;;;;;;;4.33;4.00;;;25.00;83.20;;;;;;4904297;29;20304;-73
2023/06/24 07:10:37;;;;;;;4.47;4.10;;;27.10;75.80;;;;;;4902875;29;20458;-73
2023/06/24 07:13:03;;;;;;;4.23;3.83;;;28.60;68.30;;;;;;4899859;29;20216;-73
2023/06/24 07:15:28;;;;;;;4.07;3.77;;;30.00;62.50;;;;;;4905833;29;20194;-75
2023/06/24 07:17:54;;;;;;;3.97;3.67;;;31.60;58.30;;;;;;4904567;29;20197;-74
2023/06/24 07:20:21;;;;;;;3.70;3.40;;;32.80;54.30;;;;;;4905734;29;20578;-73
2023/06/24 07:22:47;;;;;;;3.83;3.53;;;33.80;51.00;;;;;;4900729;29;20546;-73
2023/06/24 07:25:13;;;;;;;3.70;3.40;;;35.70;46.30;;;;;;4905132;29;20454;-72
2023/06/24 07:27:39;;;;;;;3.87;3.57;;;35.80;44.20;;;;;;4899097;29;20198;-71
2023/06/24 07:30:06;;;;;;;3.87;3.60;;;36.00;42.30;;;;;;4904997;29;20210;-73
2023/06/24 07:32:32;;;;;;;4.07;3.67;;;36.20;41.20;;;;;;4909333;29;20558;-72
2023/06/24 07:34:57;;;;;;;4.17;3.77;;;36.70;40.60;;;;;;4905412;29;20549;-73
2023/06/24 07:37:23;;;;;;;3.67;3.37;;;36.50;40.10;;;;;;4900867;29;20565;-73
2023/06/24 07:39:48;;;;;;;4.03;3.70;;;36.70;39.30;;;;;;4907342;29;20265;-73
2023/06/24 07:42:18;;;;;;;3.53;3.33;;;36.30;39.30;;;;;;4901123;29;20901;-73
2023/06/24 07:44:48;;;;;;;3.70;3.40;;;37.80;37.40;;;;;;4918041;29;20182;-73
2023/06/24 07:47:13;;;;;;;4.00;3.67;;;37.10;37.30;;;;;;4903156;29;20548;-73
2023/06/24 07:49:39;;;;;;;4.20;3.90;;;37.40;37.30;;;;;;4914861;29;20899;-73
2023/06/24 07:52:06;;;;;;;4.50;3.70;;;39.10;37.10;;;;;;4911756;29;20708;-74
2023/06/24 07:54:31;;;;;;;5.23;4.30;;;39.50;34.70;;;;;;4907392;29;20766;-73
2023/06/24 07:56:57;;;;;;;3.93;3.60;;;39.70;33.80;;;;;;4907949;29;20455;-73
2023/06/24 07:59:23;;;;;;;4.77;4.47;;;40.40;33.20;;;;;;4911452;29;20446;-74
2023/06/24 08:01:48;;;;;;;4.43;3.53;;;40.00;33.80;;;;;;4909681;29;20222;-74
2023/06/24 08:04:15;;;;;;;4.30;4.00;;;40.50;32.40;;;;;;4897168;29;20222;-74
2023/06/24 08:06:41;;;;;;;4.20;3.90;;;39.20;33.60;;;;;;4912586;29;20183;-74
2023/06/24 08:09:07;;;;;;;3.93;3.63;;;39.20;34.00;;;;;;4911769;29;20449;-74
2023/06/24 08:11:33;;;;;;;4.63;4.30;;;40.10;32.80;;;;;;4906626;29;21835;-74
2023/06/24 08:13:58;;;;;;;3.93;3.60;;;40.60;31.70;;;;;;4907539;29;20222;-74
2023/06/24 08:16:24;;;;;;;3.90;3.60;;;40.70;32.00;;;;;;4910192;29;20196;-74
2023/06/24 08:18:49;;;;;;;3.90;3.60;;;40.00;31.40;;;;;;4904407;29;20929;-72
2023/06/24 08:21:15;;;;;;;4.10;3.80;;;41.50;31.50;;;;;;4902364;29;20240;-72
2023/06/24 08:23:41;;;;;;;6.70;4.40;;;40.50;31.50;;;;;;4908335;29;20186;-72
2023/06/24 08:26:07;;;;;;;4.17;3.87;;;40.30;31.90;;;;;;4909948;29;20257;-70
2023/06/24 08:28:33;;;;;;;4.10;3.80;;;39.80;32.00;;;;;;4911623;29;20179;-70
2023/06/24 08:30:58;;;;;;;4.50;4.20;;;40.70;30.20;;;;;;4911572;29;20814;-71
2023/06/24 08:33:24;;;;;;;3.47;3.27;;;40.60;30.80;;;;;;4909559;29;20194;-70
2023/06/24 08:35:49;;;;;;;3.90;3.63;;;38.40;32.30;;;;;;4908431;29;20686;-70
2023/06/24 08:38:15;;;;;;;4.00;3.70;;;39.10;33.00;;;;;;4922244;29;20726;-70
2023/06/24 08:40:43;;;;;;;3.73;3.43;;;40.40;31.60;;;;;;4912837;29;20207;-70
2023/06/24 08:43:09;;;;;;;3.80;3.50;;;40.80;30.70;;;;;;4907826;29;20190;-70
2023/06/24 08:45:35;;;;;;;4.77;4.30;;;40.30;30.40;;;;;;4918132;29;20429;-71
2023/06/24 08:48:02;;;;;;;4.37;4.07;;;39.60;30.90;;;;;;4904871;29;20498;-70
2023/06/24 08:50:34;;;;;;;3.97;3.67;;;39.10;31.60;;;;;;4914589;29;20292;-70
2023/06/24 08:53:03;;;;;;;4.30;4.00;;;39.40;31.50;;;;;;4910513;29;20462;-70
2023/06/24 08:55:32;;;;;;;4.50;4.10;;;40.60;29.70;;;;;;4908901;29;20446;-69
2023/06/24 08:57:58;;;;;;;4.83;4.53;;;40.50;30.00;;;;;;4910531;29;20483;-70
2023/06/24 09:00:24;;;;;;;3.73;3.43;;;39.70;30.00;;;;;;4914790;29;20478;-70
2023/06/24 09:02:49;;;;;;;4.23;3.93;;;40.30;30.10;;;;;;4908507;29;20656;-71
2023/06/24 09:05:15;;;;;;;4.70;4.40;;;40.90;29.70;;;;;;4913442;29;20518;-70
2023/06/24 09:07:41;;;;;;;4.03;3.73;;;39.50;29.80;;;;;;4907864;29;20182;-69
2023/06/24 09:10:07;;;;;;;4.03;3.73;;;37.60;31.10;;;;;;4917769;29;20191;-70
2023/06/24 09:12:33;;;;;;;4.27;3.97;;;36.60;32.60;;;;;;4906154;29;20210;-69
2023/06/24 09:14:59;;;;;;;3.87;3.57;;;35.20;34.30;;;;;;4911361;29;20600;-69
2023/06/24 09:17:25;;;;;;;3.70;3.40;;;34.70;35.40;;;;;;4912300;29;20454;-70
2023/06/24 09:19:51;;;;;;;4.00;3.70;;;35.50;34.80;;;;;;4912182;29;20197;-69
2023/06/24 09:22:19;;;;;;;3.67;3.40;;;34.50;34.70;;;;;;4908494;29;20214;-69
2023/06/24 09:24:46;;;;;;;4.27;3.97;;;35.80;34.50;;;;;;4910325;29;20449;-69
2023/06/24 09:27:19;;;;;;;4.10;3.80;;;35.20;34.10;;;;;;4904955;29;20453;-68
2023/06/24 09:29:44;;;;;;;4.27;3.83;;;37.30;33.20;;;;;;4913332;29;20453;-71
2023/06/24 09:32:11;;;;;;;4.73;4.33;;;38.60;31.50;;;;;;4911324;29;20545;-71
2023/06/24 09:34:36;;;;;;;3.60;3.30;;;39.10;30.80;;;;;;4914378;29;20538;-71
2023/06/24 09:37:02;;;;;;;4.00;3.70;;;40.20;29.70;;;;;;4905904;29;20447;-69
2023/06/24 09:39:34;;;;;;;3.47;3.27;;;40.30;29.00;;;;;;4913069;29;20187;-70
2023/06/24 09:42:01;;;;;;;3.20;3.00;;;40.50;28.30;;;;;;4900948;29;20478;-70
2023/06/24 09:44:28;;;;;;;3.80;3.50;;;40.40;26.90;;;;;;4916067;29;20435;-70
2023/06/24 09:46:55;;;;;;;4.17;3.87;;;39.40;27.20;;;;;;4907738;29;20435;-70
2023/06/24 09:49:22;;;;;;;3.80;3.53;;;39.10;28.40;;;;;;4906170;29;20438;-70
2023/06/24 09:51:50;;;;;;;5.00;3.37;;;39.60;28.50;;;;;;4909752;29;20470;-70
2023/06/24 09:54:16;;;;;;;3.57;3.27;;;40.30;28.00;;;;;;4909618;29;20879;-70
2023/06/24 09:56:47;;;;;;;3.60;3.37;;;40.80;27.30;;;;;;4910193;29;20438;-70
2023/06/24 09:59:14;;;;;;;3.63;3.33;;;41.50;26.80;;;;;;4913158;29;20477;-70
2023/06/24 10:01:42;;;;;;;3.80;3.50;;;41.90;26.60;;;;;;4910536;29;20477;-70
2023/06/24 10:04:09;;;;;;;3.73;3.53;;;41.90;26.70;;;;;;4909564;29;20445;-70
2023/06/24 10:06:35;;;;;;;3.80;3.50;;;42.00;26.80;;;;;;4911105;29;20438;-69
2023/06/24 10:09:01;;;;;;;3.70;3.50;;;41.90;26.40;;;;;;4912091;29;20846;-70
2023/06/24 10:11:27;;;;;;;3.23;3.03;;;40.40;26.40;;;;;;4908523;29;20226;-70
2023/06/24 10:13:53;;;;;;;3.40;3.17;;;40.00;27.20;;;;;;4900867;29;20481;-71
2023/06/24 10:16:19;;;;;;;3.77;3.47;;;40.30;27.00;;;;;;4925236;29;20446;-70
2023/06/24 10:18:46;;;;;;;3.87;3.63;;;41.90;26.20;;;;;;4906152;29;20983;-70
2023/06/24 10:21:12;;;;;;;3.93;3.50;;;40.70;26.90;;;;;;4909200;29;20988;-70
2023/06/24 10:23:50;;;;;;;3.80;3.50;;;40.90;27.30;;;;;;4910657;29;20444;-70
2023/06/24 10:26:36;;;;;;;3.60;3.30;;;41.20;27.20;;;;;;4908792;29;20522;-70
2023/06/24 10:29:04;;;;;;;4.27;3.40;;;40.80;27.20;;;;;;4907109;29;20914;-71
2023/06/24 10:31:39;;;;;;;4.50;4.20;;;39.80;27.90;;;;;;4911301;29;20953;-71
2023/06/24 10:34:34;;;;;;;3.60;3.37;;;40.10;27.80;;;;;;4907361;29;20445;-70
2023/06/24 10:37:19;;;;;;;4.53;3.47;;;39.60;27.90;;;;;;4895706;29;20491;-71
2023/06/24 10:39:52;;;;;;;3.93;3.73;;;39.60;27.50;;;;;;4909817;29;20486;-71
2023/06/24 10:42:32;;;;;;;3.67;3.37;;;37.20;29.20;;;;;;4909080;29;20462;-70
2023/06/24 10:45:10;;;;;;;3.67;3.37;;;35.60;30.20;;;;;;4917993;29;20548;-71
2023/06/24 10:47:47;;;;;;;3.63;3.33;;;35.40;30.30;;;;;;4901220;29;20462;-71
2023/06/24 10:50:15;;;;;;;4.00;3.53;;;35.30;30.70;;;;;;4907471;29;20446;-70
2023/06/24 10:52:44;;;;;;;3.67;3.37;;;34.50;31.10;;;;;;4911762;29;20476;-71
2023/06/24 10:55:10;;;;;;;3.60;3.40;;;33.60;32.30;;;;;;4911742;29;20450;-70
2023/06/24 10:57:36;;;;;;;3.40;3.10;;;34.10;32.60;;;;;;4904575;29;20920;-71
2023/06/24 11:00:03;;;;;;;2.93;2.73;;;33.30;31.90;;;;;;4915475;29;20552;-71
2023/06/24 11:02:29;;;;;;;4.67;4.37;;;32.90;32.50;;;;;;4905354;29;20729;-70
2023/06/24 11:04:57;;;;;;;3.40;3.17;;;32.60;32.00;;;;;;4911422;29;20447;-71
2023/06/24 11:07:36;;;;;;;3.53;3.23;;;32.30;33.30;;;;;;4915618;29;20183;-70
2023/06/24 11:10:05;;;;;;;3.83;3.53;;;31.60;34.80;;;;;;4921606;29;20517;-70
2023/06/24 11:12:32;;;;;;;2.60;2.47;;;31.50;35.70;;;;;;4907347;29;20596;-70
2023/06/24 11:15:01;;;;;;;3.67;3.37;;;32.60;34.80;;;;;;4899881;29;20540;-70
2023/06/24 11:17:27;;;;;;;3.77;3.47;;;34.30;33.00;;;;;;4904776;29;20449;-70
2023/06/24 11:19:54;;;;;;;3.30;3.10;;;35.50;30.60;;;;;;4907735;29;20489;-70
2023/06/24 11:22:20;;;;;;;3.63;3.33;;;36.00;29.60;;;;;;4909559;29;20469;-71
2023/06/24 11:24:45;;;;;;;3.70;3.50;;;36.20;29.80;;;;;;4910400;29;20446;-70
2023/06/24 11:27:11;;;;;;;3.60;3.20;;;36.50;29.20;;;;;;4905494;29;20457;-70
2023/06/24 11:29:37;;;;;;;3.53;3.23;;;37.10;29.30;;;;;;4893807;29;20198;-79
2023/06/24 11:32:03;;;;;;;3.80;3.50;;;36.80;28.60;;;;;;4905873;29;20592;-81
2023/06/24 11:34:29;;;;;;;4.07;3.77;;;36.80;28.20;;;;;;4902484;29;20202;-80
2023/06/24 11:36:55;;;;;;;4.87;2.93;;;36.60;29.10;;;;;;4905071;29;20450;-79
2023/06/24 11:39:26;;;;;;;3.27;3.07;;;36.20;28.70;;;;;;4901313;29;20455;-78
2023/06/24 11:41:52;;;;;;;4.37;3.70;;;35.00;30.00;;;;;;4898520;29;20234;-74
2023/06/24 11:44:23;;;;;;;3.57;3.27;;;34.50;29.90;;;;;;4895115;29;20451;-74
2023/06/24 11:46:49;;;;;;;4.00;3.70;;;34.00;29.80;;;;;;4901549;29;20447;-74
2023/06/24 11:49:15;;;;;;;3.50;3.20;;;34.20;30.50;;;;;;4905587;29;20944;-73
2023/06/24 11:51:50;;;;;;;3.70;3.40;;;33.90;30.50;;;;;;4909965;29;20262;-81
2023/06/24 11:54:20;;;;;;;3.73;3.43;;;33.50;31.20;;;;;;4917656;29;20468;-82
2023/06/24 11:56:52;;;;;;;3.13;2.90;;;32.70;31.60;;;;;;4916489;29;20549;-81
2023/06/24 11:59:24;;;;;;;4.07;3.60;;;32.40;32.40;;;;;;4912120;29;20531;-83
2023/06/24 12:01:54;;;;;;;3.57;3.27;;;32.10;33.20;;;;;;4931635;29;20802;-81
2023/06/24 12:04:20;;;;;;;3.10;2.90;;;31.70;34.50;;;;;;4920551;29;20465;-82
2023/06/24 12:06:45;;;;;;;3.63;3.33;;;31.30;35.20;;;;;;4918911;29;20443;-81
2023/06/24 12:09:12;;;;;;;3.60;3.30;;;30.70;35.60;;;;;;4912769;29;20539;-81
2023/06/24 12:11:38;;;;;;;3.63;3.33;;;30.40;36.70;;;;;;4907646;29;20238;-81
2023/06/24 12:14:04;;;;;;;3.90;3.43;;;30.10;37.70;;;;;;4915045;29;20919;-81
2023/06/24 12:16:30;;;;;;;3.57;3.27;;;29.60;37.30;;;;;;4919930;29;20839;-81
2023/06/24 12:18:56;;;;;;;4.30;3.40;;;29.60;37.80;;;;;;4913719;29;21161;-81
2023/06/24 12:21:21;;;;;;;3.83;3.53;;;29.30;37.90;;;;;;4921043;29;20637;-82
2023/06/24 12:23:47;;;;;;;3.80;3.50;;;29.20;38.80;;;;;;4922285;29;20197;-81
2023/06/24 12:26:13;;;;;;;3.30;3.07;;;29.30;38.00;;;;;;4916955;29;20204;-81
2023/06/24 12:28:38;;;;;;;3.70;3.50;;;29.50;38.20;;;;;;4933526;29;20593;-82
2023/06/24 12:31:04;;;;;;;3.70;3.40;;;29.40;37.90;;;;;;4918982;29;20221;-82
2023/06/24 12:33:30;;;;;;;3.40;3.10;;;29.50;38.10;;;;;;4917088;29;20208;-85
2023/06/24 12:35:56;;;;;;;3.33;3.13;;;29.30;38.60;;;;;;4921939;29;20451;-81
2023/06/24 12:38:22;;;;;;;4.20;3.87;;;29.10;39.00;;;;;;4909239;29;20192;-81
2023/06/24 12:40:48;;;;;;;3.73;3.43;;;29.10;38.60;;;;;;4917486;29;20474;-82
2023/06/24 12:43:14;;;;;;;4.10;3.70;;;29.10;39.20;;;;;;4914684;29;20255;-80
2023/06/24 12:45:43;;;;;;;3.90;3.50;;;29.10;39.80;;;;;;4911022;29;20188;-84
2023/06/24 12:48:09;;;;;;;4.23;3.70;;;29.00;39.60;;;;;;4913703;29;20447;-81
2023/06/24 12:50:35;;;;;;;5.03;3.97;;;28.60;38.90;;;;;;4912740;29;20513;-80